createdAt,value
2024-02-29T00:02:11.552Z,76.94
2024-02-29T00:04:37.999Z,77.31
2024-02-29T00:07:04.831Z,76.82
2024-02-29T00:09:31.809Z,77.13
2024-02-29T00:11:58.239Z,77.18
2024-02-29T00:14:24.653Z,77.17
2024-02-29T00:16:51.493Z,77.32
2024-02-29T00:19:18.714Z,77.55
2024-02-29T00:21:45.650Z,77.95
2024-02-29T00:24:12.076Z,78.28
2024-02-29T00:26:38.502Z,78.09
2024-02-29T00:29:05.501Z,78.10
2024-02-29T00:31:31.919Z,77.99
2024-02-29T00:33:58.326Z,78.19
2024-02-29T00:36:24.696Z,78.11
2024-02-29T00:38:58.864Z,78.51
2024-02-29T00:41:31.963Z,78.71
2024-02-29T00:43:58.350Z,78.55
2024-02-29T00:46:24.729Z,78.74
2024-02-29T00:48:51.145Z,78.76
2024-02-29T00:51:17.511Z,78.87
2024-02-29T00:53:43.982Z,79.06
2024-02-29T00:56:10.458Z,79.07
2024-02-29T00:58:36.893Z,79.31
2024-02-29T01:01:03.586Z,79.17
2024-02-29T01:03:32.609Z,79.64
2024-02-29T01:05:59.904Z,79.47
2024-02-29T01:08:26.306Z,79.81
2024-02-29T01:10:52.933Z,80.02
2024-02-29T01:13:19.425Z,79.99
2024-02-29T01:15:46.277Z,80.26
2024-02-29T01:18:12.793Z,80.36
2024-02-29T01:20:39.496Z,80.49
2024-02-29T01:23:05.885Z,80.71
2024-02-29T01:25:32.256Z,80.54
2024-02-29T01:27:58.855Z,80.65
2024-02-29T01:30:25.366Z,81.20
2024-02-29T01:32:51.734Z,80.99
2024-02-29T01:35:18.168Z,81.27
2024-02-29T01:37:44.503Z,80.74
2024-02-29T01:40:11.259Z,80.77
2024-02-29T01:42:41.530Z,80.93
2024-02-29T01:45:08.282Z,81.14
2024-02-29T01:47:34.651Z,81.31
2024-02-29T01:50:04.447Z,81.09
2024-02-29T01:52:33.845Z,81.14
2024-02-29T01:55:00.668Z,81.26
2024-02-29T01:57:27.893Z,81.04
2024-02-29T01:59:54.273Z,80.69
2024-02-29T02:02:20.654Z,80.97
2024-02-29T02:04:47.073Z,80.94
2024-02-29T02:07:13.446Z,80.85
2024-02-29T02:09:42.411Z,80.88
2024-02-29T02:12:11.508Z,80.67
2024-02-29T02:14:40.016Z,80.98
2024-02-29T02:17:07.566Z,81.02
2024-02-29T02:19:34.010Z,80.65
2024-02-29T02:22:00.634Z,80.91
2024-02-29T02:24:27.034Z,81.09
2024-02-29T02:26:53.473Z,80.90
2024-02-29T02:29:19.891Z,81.25
2024-02-29T02:31:46.262Z,81.30
2024-02-29T02:34:12.760Z,81.11
2024-02-29T02:36:39.307Z,81.63
2024-02-29T02:39:05.714Z,81.02
2024-02-29T02:41:32.231Z,81.23
2024-02-29T02:43:58.795Z,81.10
2024-02-29T02:46:25.145Z,80.83
2024-02-29T02:48:51.526Z,81.10
2024-02-29T02:51:18.005Z,81.15
2024-02-29T02:53:44.363Z,81.09
2024-02-29T02:56:10.721Z,81.08
2024-02-29T02:58:37.118Z,80.78
2024-02-29T03:01:04.191Z,80.63
2024-02-29T03:03:30.664Z,80.89
2024-02-29T03:05:57.183Z,80.53
2024-02-29T03:08:23.585Z,80.96
2024-02-29T03:10:49.965Z,80.25
2024-02-29T03:13:16.469Z,80.71
2024-02-29T03:15:42.874Z,80.58
2024-02-29T03:18:09.376Z,80.74
2024-02-29T03:20:35.914Z,80.38
2024-02-29T03:23:02.286Z,80.18
2024-02-29T03:25:28.646Z,80.08
2024-02-29T03:27:55.397Z,79.82
2024-02-29T03:30:21.860Z,79.87
2024-02-29T03:32:48.262Z,79.70
2024-02-29T03:35:14.757Z,79.69
2024-02-29T03:37:41.166Z,79.83
2024-02-29T03:40:08.394Z,79.41
2024-02-29T03:42:34.937Z,79.19
2024-02-29T03:45:01.308Z,79.18
2024-02-29T03:47:27.742Z,79.38
2024-02-29T03:49:54.148Z,79.17
2024-02-29T03:52:20.573Z,79.13
2024-02-29T03:54:46.998Z,78.89
2024-02-29T03:57:13.348Z,78.98
2024-02-29T03:59:39.733Z,78.74
2024-02-29T04:02:06.142Z,78.30
2024-02-29T04:04:32.523Z,78.66
2024-02-29T04:06:58.944Z,78.16
2024-02-29T04:09:25.943Z,77.87
2024-02-29T04:11:52.383Z,77.99
2024-02-29T04:14:18.778Z,77.67
2024-02-29T04:16:45.173Z,77.47
2024-02-29T04:19:12.046Z,77.37
2024-02-29T04:21:44.204Z,76.87
2024-02-29T04:24:10.567Z,77.29
2024-02-29T04:26:37.149Z,77.57
2024-02-29T04:29:03.740Z,77.30
2024-02-29T04:31:30.099Z,77.29
2024-02-29T04:33:56.630Z,77.35
2024-02-29T04:36:23.123Z,77.11
2024-02-29T04:38:51.014Z,76.97
2024-02-29T04:41:17.933Z,77.18
2024-02-29T04:43:44.303Z,77.32
2024-02-29T04:46:10.749Z,76.82
2024-02-29T04:48:37.236Z,76.73
2024-02-29T04:51:05.740Z,76.65
2024-02-29T04:53:32.129Z,76.27
2024-02-29T04:55:58.789Z,76.15
2024-02-29T04:58:25.159Z,75.91
2024-02-29T05:00:51.790Z,76.26
2024-02-29T05:03:18.262Z,76.47
2024-02-29T05:05:44.661Z,76.05
2024-02-29T05:08:11.078Z,75.84
2024-02-29T05:10:37.461Z,76.55
2024-02-29T05:13:03.951Z,76.31
2024-02-29T05:15:30.411Z,76.11
2024-02-29T05:17:56.799Z,76.01
2024-02-29T05:20:23.338Z,76.14
2024-02-29T05:22:54.695Z,76.34
2024-02-29T05:25:21.850Z,76.35
2024-02-29T05:27:48.337Z,76.39
2024-02-29T05:30:16.070Z,76.64
2024-02-29T05:32:42.494Z,76.60
2024-02-29T05:35:09.071Z,76.31
2024-02-29T05:37:37.231Z,76.62
2024-02-29T05:40:06.824Z,76.80
2024-02-29T05:42:33.435Z,76.75
2024-02-29T05:45:01.236Z,76.89
2024-02-29T05:47:27.786Z,76.88
2024-02-29T05:49:54.232Z,76.95
2024-02-29T05:52:20.622Z,77.34
2024-02-29T05:54:47.012Z,77.10
2024-02-29T05:57:13.621Z,76.83
2024-02-29T05:59:40.091Z,76.74
2024-02-29T06:02:06.608Z,77.12
2024-02-29T06:04:33.089Z,77.24
2024-02-29T06:06:59.523Z,77.47
2024-02-29T06:09:25.986Z,77.47
2024-02-29T06:11:52.506Z,77.31
2024-02-29T06:14:19.044Z,78.64
2024-02-29T06:16:45.615Z,79.50
2024-02-29T06:19:12.096Z,79.46
2024-02-29T06:21:38.512Z,78.13
2024-02-29T06:24:05.112Z,77.85
2024-02-29T06:26:31.733Z,77.90
2024-02-29T06:28:58.128Z,78.76
2024-02-29T06:31:26.722Z,79.47
2024-02-29T06:33:53.475Z,77.90
2024-02-29T06:36:19.956Z,77.11
2024-02-29T06:38:46.376Z,77.08
2024-02-29T06:41:12.849Z,77.13
2024-02-29T06:43:39.200Z,77.26
2024-02-29T06:46:08.109Z,77.49
2024-02-29T06:48:34.949Z,77.36
2024-02-29T06:51:01.616Z,77.62
2024-02-29T06:53:29.892Z,77.44
2024-02-29T06:55:56.232Z,77.31
2024-02-29T06:58:22.827Z,77.52
2024-02-29T07:00:49.706Z,77.55
2024-02-29T07:03:16.287Z,77.78
2024-02-29T07:05:43.034Z,77.69
2024-02-29T07:08:11.354Z,77.18
2024-02-29T07:10:41.365Z,77.42
2024-02-29T07:13:07.851Z,76.59
2024-02-29T07:15:35.007Z,76.80
2024-02-29T07:18:02.325Z,76.80
2024-02-29T07:20:29.212Z,76.80
2024-02-29T07:22:57.335Z,76.40
2024-02-29T07:25:23.788Z,76.03
2024-02-29T07:27:50.647Z,75.78
2024-02-29T07:30:17.125Z,75.53
2024-02-29T07:32:43.551Z,75.92
2024-02-29T07:35:13.101Z,75.15
2024-02-29T07:37:39.995Z,74.97
2024-02-29T07:40:08.057Z,74.46
2024-02-29T07:42:34.722Z,74.45
2024-02-29T07:45:01.213Z,74.71
2024-02-29T07:47:27.790Z,74.28
2024-02-29T07:49:54.265Z,73.86
2024-02-29T07:52:20.711Z,73.31
2024-02-29T07:54:47.395Z,73.00
2024-02-29T07:57:14.011Z,72.71
2024-02-29T07:59:40.609Z,72.33
2024-02-29T08:02:07.367Z,71.74
2024-02-29T08:04:34.333Z,70.97
2024-02-29T08:07:00.780Z,70.60
2024-02-29T08:09:27.440Z,70.00
2024-02-29T08:11:53.956Z,69.62
2024-02-29T08:14:21.089Z,68.79
2024-02-29T08:16:47.915Z,68.54
2024-02-29T08:19:14.552Z,68.65
2024-02-29T08:21:41.476Z,68.36
2024-02-29T08:24:08.232Z,68.73
2024-02-29T08:26:34.782Z,68.21
2024-02-29T08:29:01.274Z,68.24
2024-02-29T08:31:28.049Z,68.19
2024-02-29T08:33:54.709Z,67.84
2024-02-29T08:36:21.879Z,67.62
2024-02-29T08:38:48.790Z,67.12
2024-02-29T08:41:15.367Z,67.49
2024-02-29T08:43:46.180Z,66.93
2024-02-29T08:46:18.510Z,66.95
2024-02-29T08:48:54.201Z,66.57
2024-02-29T08:51:28.258Z,66.57
2024-02-29T08:54:10.537Z,65.64
2024-02-29T08:56:39.853Z,65.37
2024-02-29T08:59:06.393Z,64.96
2024-02-29T09:01:36.180Z,65.15
2024-02-29T09:04:02.885Z,64.32
2024-02-29T09:06:39.093Z,64.23
2024-02-29T09:09:08.165Z,62.92
2024-02-29T09:11:34.654Z,62.76
2024-02-29T09:14:01.192Z,62.27
2024-02-29T09:16:27.698Z,62.12
2024-02-29T09:18:54.788Z,62.10
2024-02-29T09:21:23.564Z,61.85
2024-02-29T09:23:50.756Z,61.97
2024-02-29T09:26:19.225Z,62.24
2024-02-29T09:28:45.970Z,62.08
2024-02-29T09:31:15.673Z,62.25
2024-02-29T09:33:48.274Z,61.65
2024-02-29T09:36:28.661Z,61.47
2024-02-29T09:38:55.122Z,61.45
2024-02-29T09:41:32.874Z,62.13
2024-02-29T09:44:10.470Z,61.69
2024-02-29T09:46:39.002Z,61.10
2024-02-29T09:49:05.567Z,61.07
2024-02-29T09:51:32.629Z,60.44
2024-02-29T09:54:00.506Z,60.40
2024-02-29T09:56:29.083Z,60.10
2024-02-29T09:58:57.286Z,59.77
2024-02-29T10:01:23.973Z,60.07
2024-02-29T10:03:51.779Z,60.08
2024-02-29T10:06:18.732Z,60.43
2024-02-29T10:08:51.659Z,60.03
2024-02-29T10:11:18.589Z,59.99
2024-02-29T10:13:45.765Z,60.28
2024-02-29T10:16:13.819Z,60.27
2024-02-29T10:18:40.547Z,60.50
2024-02-29T10:21:16.469Z,60.27
2024-02-29T10:23:44.280Z,60.10
2024-02-29T10:26:10.882Z,59.59
2024-02-29T10:28:37.364Z,59.04
2024-02-29T10:31:04.357Z,58.76
2024-02-29T10:33:33.979Z,58.59
2024-02-29T10:36:12.427Z,58.91
2024-02-29T10:38:39.151Z,58.79
2024-02-29T10:41:09.563Z,58.92
2024-02-29T10:43:37.606Z,58.26
2024-02-29T10:46:06.219Z,57.81
2024-02-29T10:48:48.123Z,57.53
2024-02-29T10:51:28.168Z,56.54
2024-02-29T10:54:24.477Z,56.03
2024-02-29T10:56:57.913Z,56.49
2024-02-29T10:59:28.689Z,55.39
2024-02-29T11:02:04.065Z,55.31
2024-02-29T11:04:30.901Z,55.15
2024-02-29T11:07:01.579Z,55.11
2024-02-29T11:09:32.801Z,54.89
2024-02-29T11:12:15.049Z,55.48
2024-02-29T11:14:48.875Z,55.58
2024-02-29T11:17:16.216Z,55.81
2024-02-29T11:19:51.741Z,56.01
2024-02-29T11:22:32.853Z,55.77
2024-02-29T11:28:06.175Z,55.66
2024-02-29T11:30:39.156Z,55.96
2024-02-29T11:33:26.308Z,55.97
2024-02-29T11:36:02.671Z,56.04
2024-02-29T11:38:36.336Z,56.36
2024-02-29T11:41:41.250Z,55.90
2024-02-29T11:44:08.171Z,56.53
2024-02-29T11:46:34.763Z,56.72
2024-02-29T11:49:01.341Z,56.55
2024-02-29T11:51:29.573Z,56.32
2024-02-29T11:53:56.250Z,56.37
2024-02-29T11:56:22.919Z,56.61
2024-02-29T11:58:51.078Z,56.95
2024-02-29T12:01:17.607Z,57.15
2024-02-29T12:03:45.114Z,57.20
2024-02-29T12:06:11.764Z,57.31
2024-02-29T12:08:39.859Z,57.64
2024-02-29T12:13:51.542Z,57.85
2024-02-29T12:16:18.411Z,57.15
2024-02-29T12:18:46.722Z,57.77
2024-02-29T12:21:13.300Z,57.70
2024-02-29T12:23:40.693Z,57.42
2024-02-29T12:26:19.634Z,56.79
2024-02-29T12:28:49.024Z,56.68
2024-02-29T12:31:15.896Z,56.85
2024-02-29T12:33:43.894Z,56.77
2024-02-29T12:36:14.304Z,56.60
2024-02-29T12:38:41.110Z,55.85
2024-02-29T12:41:07.843Z,55.31
2024-02-29T12:43:37.702Z,55.21
2024-02-29T12:46:04.939Z,55.38
2024-02-29T12:48:32.068Z,54.74
2024-02-29T12:50:58.849Z,54.34
2024-02-29T12:53:26.070Z,54.29
2024-02-29T12:55:53.518Z,53.99
2024-02-29T12:58:20.282Z,53.70
2024-02-29T13:00:46.964Z,54.05
2024-02-29T13:03:13.707Z,54.20
2024-02-29T13:05:41.196Z,53.61
2024-02-29T13:08:09.931Z,53.10
2024-02-29T13:10:36.539Z,53.60
2024-02-29T13:13:10.123Z,52.83
2024-02-29T13:15:37.526Z,52.95
2024-02-29T13:18:04.068Z,52.88
2024-02-29T13:20:30.543Z,51.99
2024-02-29T13:22:57.482Z,52.17
2024-02-29T13:25:23.938Z,52.18
2024-02-29T13:27:50.556Z,52.26
2024-02-29T13:30:17.169Z,51.56
2024-02-29T13:32:43.672Z,51.49
2024-02-29T13:35:10.178Z,51.39
2024-02-29T13:37:36.744Z,51.05
2024-02-29T13:40:04.674Z,50.19
2024-02-29T13:42:31.213Z,50.29
2024-02-29T13:44:57.652Z,49.71
2024-02-29T13:47:24.170Z,49.73
2024-02-29T13:49:50.934Z,49.17
2024-02-29T13:52:20.427Z,48.99
2024-02-29T13:54:47.298Z,49.10
2024-02-29T13:57:15.407Z,49.27
2024-02-29T13:59:43.644Z,48.92
2024-02-29T14:02:10.282Z,48.88
2024-02-29T14:04:37.219Z,48.91
2024-02-29T14:07:05.372Z,48.77
2024-02-29T14:09:34.077Z,48.73
2024-02-29T14:12:01.281Z,48.85
2024-02-29T14:14:28.387Z,49.22
2024-02-29T14:16:55.234Z,49.17
2024-02-29T14:19:21.822Z,48.84
2024-02-29T14:21:48.386Z,49.14
2024-02-29T14:24:14.890Z,49.12
2024-02-29T14:26:41.482Z,48.60
2024-02-29T14:29:07.983Z,49.09
2024-02-29T14:31:34.864Z,49.14
2024-02-29T14:34:01.406Z,49.32
2024-02-29T14:36:28.504Z,49.38
2024-02-29T14:39:09.691Z,49.21
2024-02-29T14:41:38.134Z,49.27
2024-02-29T14:44:04.991Z,49.27
2024-02-29T14:46:48.433Z,49.18
2024-02-29T14:49:15.682Z,49.56
2024-02-29T14:51:42.545Z,49.56
2024-02-29T14:54:09.157Z,49.39
2024-02-29T14:56:37.099Z,49.70
2024-02-29T14:59:05.263Z,49.84
2024-02-29T15:01:32.694Z,50.26
2024-02-29T15:03:59.452Z,50.37
2024-02-29T15:06:32.162Z,49.99
2024-02-29T15:08:58.970Z,50.33
2024-02-29T15:11:27.519Z,50.25
2024-02-29T15:13:54.928Z,50.34
2024-02-29T15:16:21.714Z,50.09
2024-02-29T15:18:48.632Z,50.30
2024-02-29T15:21:15.225Z,50.53
2024-02-29T15:23:41.872Z,50.31
2024-02-29T15:26:11.943Z,50.16
2024-02-29T15:28:41.548Z,50.03
2024-02-29T15:31:09.140Z,50.60
2024-02-29T15:33:35.969Z,51.03
2024-02-29T15:36:02.562Z,50.91
2024-02-29T15:38:29.058Z,50.82
2024-02-29T15:40:59.813Z,50.39
2024-02-29T15:43:27.053Z,50.29
2024-02-29T15:45:53.685Z,50.26
2024-02-29T15:48:20.253Z,49.89
2024-02-29T15:50:46.941Z,50.29
2024-02-29T15:53:16.440Z,49.81
2024-02-29T15:55:42.989Z,49.78
2024-02-29T15:58:09.914Z,50.16
2024-02-29T16:00:40.412Z,49.58
2024-02-29T16:03:07.313Z,49.18
2024-02-29T16:05:37.278Z,49.40
2024-02-29T16:08:04.172Z,49.60
2024-02-29T16:10:30.954Z,49.59
2024-02-29T16:13:02.504Z,49.53
2024-02-29T16:15:30.402Z,49.46
2024-02-29T16:17:56.976Z,49.81
2024-02-29T16:20:23.576Z,49.67
2024-02-29T16:22:50.332Z,49.85
2024-02-29T16:25:19.288Z,49.63
2024-02-29T16:27:46.072Z,49.96
2024-02-29T16:30:12.798Z,50.09
2024-02-29T16:32:39.190Z,50.17
2024-02-29T16:35:06.435Z,50.23
2024-02-29T16:37:33.148Z,50.67
2024-02-29T16:39:59.738Z,51.08
2024-02-29T16:42:27.284Z,51.15
2024-02-29T16:44:53.681Z,51.23
2024-02-29T16:47:20.169Z,51.46
2024-02-29T16:49:48.037Z,51.42
2024-02-29T16:52:15.406Z,51.61
2024-02-29T16:54:41.979Z,51.82
2024-02-29T16:57:08.457Z,51.62
2024-02-29T16:59:37.042Z,51.93
2024-02-29T17:02:03.675Z,52.13
2024-02-29T17:04:30.586Z,52.21
2024-02-29T17:06:57.124Z,52.18
2024-02-29T17:09:23.587Z,52.15
2024-02-29T17:11:50.154Z,52.41
2024-02-29T17:14:16.702Z,52.32
2024-02-29T17:16:43.388Z,52.35
2024-02-29T17:19:10.131Z,52.45
2024-02-29T17:21:37.843Z,52.85
2024-02-29T17:24:07.174Z,52.51
2024-02-29T17:26:34.892Z,52.81
2024-02-29T17:29:01.360Z,53.14
2024-02-29T17:31:27.976Z,52.60
2024-02-29T17:33:54.510Z,53.12
2024-02-29T17:36:21.189Z,52.84
2024-02-29T17:38:48.140Z,53.16
2024-02-29T17:41:15.425Z,53.05
2024-02-29T17:43:42.496Z,52.78
2024-02-29T17:46:09.027Z,52.85
2024-02-29T17:48:36.550Z,52.91
2024-02-29T17:51:04.349Z,53.04
2024-02-29T17:53:30.757Z,53.51
2024-02-29T17:55:57.204Z,53.38
2024-02-29T17:58:23.908Z,53.25
2024-02-29T18:00:50.389Z,53.22
2024-02-29T18:03:16.928Z,53.29
2024-02-29T18:05:44.110Z,53.29
2024-02-29T18:08:10.850Z,53.38
2024-02-29T18:10:37.589Z,53.45
2024-02-29T18:13:04.347Z,53.72
2024-02-29T18:15:31.865Z,53.80
2024-02-29T18:17:58.364Z,53.67
2024-02-29T18:20:26.195Z,53.98
2024-02-29T18:22:52.655Z,53.85
2024-02-29T18:25:22.279Z,54.18
2024-02-29T18:27:48.785Z,54.28
2024-02-29T18:30:15.922Z,54.48
2024-02-29T18:32:42.311Z,54.39
2024-02-29T18:35:10.592Z,54.60
2024-02-29T18:37:38.428Z,54.52
2024-02-29T18:40:05.510Z,54.47
2024-02-29T18:42:32.198Z,54.40
2024-02-29T18:44:59.609Z,54.66
2024-02-29T18:47:26.344Z,54.78
2024-02-29T18:49:52.730Z,54.84
2024-02-29T18:52:20.216Z,54.97
2024-02-29T18:54:46.673Z,54.88
2024-02-29T18:57:13.261Z,54.61
2024-02-29T18:59:39.637Z,54.76
2024-02-29T19:02:06.080Z,54.62
2024-02-29T19:04:32.797Z,54.72
2024-02-29T19:06:59.308Z,55.12
2024-02-29T19:09:26.605Z,55.11
2024-02-29T19:11:53.016Z,55.19
2024-02-29T19:14:20.019Z,55.34
2024-02-29T19:16:46.670Z,55.35
2024-02-29T19:19:13.770Z,55.41
2024-02-29T19:21:40.352Z,55.50
2024-02-29T19:24:10.101Z,55.62
2024-02-29T19:26:37.074Z,56.03
2024-02-29T19:29:03.770Z,56.24
2024-02-29T19:31:30.247Z,56.48
2024-02-29T19:33:56.753Z,56.14
2024-02-29T19:36:26.766Z,56.37
2024-02-29T19:38:53.910Z,56.87
2024-02-29T19:41:20.300Z,56.91
2024-02-29T19:43:46.984Z,57.27
2024-02-29T19:46:13.518Z,57.10
2024-02-29T19:48:39.930Z,57.14
2024-02-29T19:51:08.002Z,57.68
2024-02-29T19:53:36.809Z,57.81
2024-02-29T19:56:03.333Z,57.83
2024-02-29T19:58:29.776Z,58.00
2024-02-29T20:01:01.557Z,58.42
2024-02-29T20:03:29.008Z,58.41
2024-02-29T20:05:56.862Z,58.70
2024-02-29T20:08:23.380Z,59.30
2024-02-29T20:10:49.806Z,59.47
2024-02-29T20:13:16.266Z,59.52
2024-02-29T20:15:42.791Z,60.15
2024-02-29T20:18:09.472Z,60.25
2024-02-29T20:20:35.983Z,59.97
2024-02-29T20:23:02.529Z,60.39
2024-02-29T20:25:30.378Z,60.62
2024-02-29T20:27:57.620Z,60.99
2024-02-29T20:30:24.313Z,61.14
2024-02-29T20:32:51.372Z,61.47
2024-02-29T20:35:18.025Z,61.26
2024-02-29T20:37:44.641Z,61.74
2024-02-29T20:40:11.830Z,62.18
2024-02-29T20:42:39.102Z,62.87
2024-02-29T20:45:06.132Z,63.14
2024-02-29T20:47:33.185Z,63.43
2024-02-29T20:49:59.764Z,63.30
2024-02-29T20:52:26.879Z,64.16
2024-02-29T20:54:53.636Z,64.46
2024-02-29T20:57:20.560Z,64.80
2024-02-29T20:59:47.215Z,64.81
2024-02-29T21:02:13.990Z,64.92
2024-02-29T21:04:40.610Z,65.21
2024-02-29T21:07:07.128Z,65.18
2024-02-29T21:09:35.320Z,65.82
2024-02-29T21:12:01.928Z,65.79
2024-02-29T21:14:28.966Z,66.26
2024-02-29T21:16:55.424Z,66.52
2024-02-29T21:19:21.934Z,66.42
2024-02-29T21:21:48.534Z,66.78
2024-02-29T21:24:15.621Z,66.57
2024-02-29T21:26:42.462Z,66.56
2024-02-29T21:29:09.387Z,66.86
2024-02-29T21:31:36.023Z,67.07
2024-02-29T21:34:02.553Z,67.71
2024-02-29T21:36:28.997Z,67.95
2024-02-29T21:38:56.053Z,68.01
2024-02-29T21:41:23.492Z,67.70
2024-02-29T21:43:50.683Z,68.18
2024-02-29T21:46:17.393Z,68.10
2024-02-29T21:48:46.871Z,68.69
2024-02-29T21:51:20.294Z,68.78
2024-02-29T21:53:48.378Z,68.60
2024-02-29T21:56:15.062Z,69.00
2024-02-29T21:58:42.495Z,69.09
2024-02-29T22:01:09.124Z,69.12
2024-02-29T22:03:35.721Z,69.67
2024-02-29T22:06:02.420Z,69.95
2024-02-29T22:08:29.625Z,70.44
2024-02-29T22:10:56.061Z,70.26
2024-02-29T22:13:22.546Z,70.51
2024-02-29T22:15:49.092Z,70.40
2024-02-29T22:18:16.083Z,70.82
2024-02-29T22:20:46.552Z,71.46
2024-02-29T22:23:14.008Z,70.99
2024-02-29T22:25:40.458Z,71.32
2024-02-29T22:28:07.048Z,71.28
2024-02-29T22:30:33.493Z,71.24
2024-02-29T22:33:00.050Z,71.27
2024-02-29T22:35:26.583Z,71.58
2024-02-29T22:37:53.038Z,71.59
2024-02-29T22:40:19.486Z,71.60
2024-02-29T22:42:46.755Z,71.93
2024-02-29T22:45:13.252Z,72.22
2024-02-29T22:47:39.683Z,72.04
2024-02-29T22:50:06.680Z,72.21
2024-02-29T22:52:33.146Z,72.14
2024-02-29T22:54:59.654Z,72.30
2024-02-29T22:57:26.137Z,72.20
2024-02-29T22:59:52.525Z,72.35
2024-02-29T23:02:19.042Z,72.56
2024-02-29T23:04:45.557Z,72.49
2024-02-29T23:07:12.075Z,72.51
2024-02-29T23:09:38.555Z,72.80
2024-02-29T23:12:05.940Z,72.73
2024-02-29T23:14:32.454Z,72.75
2024-02-29T23:16:59.008Z,72.89
2024-02-29T23:19:26.640Z,72.74
2024-02-29T23:21:53.148Z,73.26
2024-02-29T23:24:19.606Z,73.29
2024-02-29T23:26:46.167Z,73.41
2024-02-29T23:29:12.675Z,73.13
2024-02-29T23:31:39.741Z,73.39
2024-02-29T23:34:06.384Z,73.26
2024-02-29T23:36:32.793Z,73.43
2024-02-29T23:38:59.244Z,73.33
2024-02-29T23:41:26.166Z,73.79
2024-02-29T23:43:53.792Z,73.27
2024-02-29T23:46:20.760Z,73.23
2024-02-29T23:48:47.387Z,73.65
2024-02-29T23:51:13.988Z,73.71
2024-02-29T23:53:40.463Z,73.27
2024-02-29T23:56:07.084Z,73.43
2024-02-29T23:58:33.657Z,73.53
